sensor_id;sensor_type;location;lat;lon;timestamp;P1;durP1;ratioP1;P2;durP2;ratioP2
36221;SDS011;22266;52.340;4.962;2022-09-23T00:01:00;13.50;;;13.00;;
36221;SDS011;22266;52.340;4.962;2022-09-23T00:03:29;18.75;;;14.75;;
36221;SDS011;22266;52.340;4.962;2022-09-23T00:05:57;16.25;;;14.00;;
36221;SDS011;22266;52.340;4.962;2022-09-23T00:08:28;14.75;;;14.75;;
36221;SDS011;22266;52.340;4.962;2022-09-23T00:10:56;13.00;;;13.00;;
36221;SDS011;22266;52.340;4.962;2022-09-23T00:13:23;15.00;;;13.25;;
36221;SDS011;22266;52.340;4.962;2022-09-23T00:15:50;14.50;;;14.50;;
36221;SDS011;22266;52.340;4.962;2022-09-23T00:18:17;16.00;;;16.00;;
36221;SDS011;22266;52.340;4.962;2022-09-23T00:20:45;13.50;;;13.00;;
36221;SDS011;22266;52.340;4.962;2022-09-23T00:23:12;13.00;;;13.00;;
36221;SDS011;22266;52.340;4.962;2022-09-23T00:25:39;17.75;;;14.50;;
36221;SDS011;22266;52.340;4.962;2022-09-23T00:28:05;13.00;;;13.00;;
36221;SDS011;22266;52.340;4.962;2022-09-23T00:30:31;17.25;;;15.25;;
36221;SDS011;22266;52.340;4.962;2022-09-23T00:32:58;12.50;;;12.00;;
36221;SDS011;22266;52.340;4.962;2022-09-23T00:35:25;16.00;;;16.00;;
36221;SDS011;22266;52.340;4.962;2022-09-23T00:37:51;10.75;;;10.75;;
36221;SDS011;22266;52.340;4.962;2022-09-23T00:40:18;17.00;;;17.00;;
36221;SDS011;22266;52.340;4.962;2022-09-23T00:42:45;12.50;;;11.75;;
36221;SDS011;22266;52.340;4.962;2022-09-23T00:45:13;14.25;;;14.25;;
36221;SDS011;22266;52.340;4.962;2022-09-23T00:47:51;13.00;;;13.00;;
36221;SDS011;22266;52.340;4.962;2022-09-23T00:50:29;12.00;;;11.75;;
36221;SDS011;22266;52.340;4.962;2022-09-23T00:52:57;15.25;;;13.50;;
36221;SDS011;22266;52.340;4.962;2022-09-23T00:55:26;17.25;;;15.75;;
36221;SDS011;22266;52.340;4.962;2022-09-23T00:57:55;15.25;;;15.00;;
36221;SDS011;22266;52.340;4.962;2022-09-23T01:00:25;17.00;;;17.00;;
36221;SDS011;22266;52.340;4.962;2022-09-23T01:02:52;14.00;;;13.00;;
36221;SDS011;22266;52.340;4.962;2022-09-23T01:05:19;15.75;;;15.25;;
36221;SDS011;22266;52.340;4.962;2022-09-23T01:07:46;17.25;;;15.25;;
36221;SDS011;22266;52.340;4.962;2022-09-23T01:10:13;16.50;;;15.75;;
36221;SDS011;22266;52.340;4.962;2022-09-23T01:15:37;17.50;;;14.25;;
36221;SDS011;22266;52.340;4.962;2022-09-23T01:26:52;16.50;;;15.00;;
36221;SDS011;22266;52.340;4.962;2022-09-23T01:32:17;19.75;;;17.75;;
36221;SDS011;22266;52.340;4.962;2022-09-23T01:35:18;18.25;;;17.25;;
36221;SDS011;22266;52.340;4.962;2022-09-23T01:41:03;18.50;;;17.75;;
36221;SDS011;22266;52.340;4.962;2022-09-23T01:46:31;14.00;;;12.00;;
36221;SDS011;22266;52.340;4.962;2022-09-23T01:49:06;15.25;;;12.25;;
36221;SDS011;22266;52.340;4.962;2022-09-23T01:51:38;18.50;;;16.00;;
36221;SDS011;22266;52.340;4.962;2022-09-23T01:57:20;14.00;;;14.00;;
36221;SDS011;22266;52.340;4.962;2022-09-23T01:59:55;20.00;;;15.50;;
36221;SDS011;22266;52.340;4.962;2022-09-23T02:02:38;14.75;;;14.25;;
36221;SDS011;22266;52.340;4.962;2022-09-23T02:05:11;15.25;;;15.25;;
36221;SDS011;22266;52.340;4.962;2022-09-23T02:07:50;21.75;;;19.00;;
36221;SDS011;22266;52.340;4.962;2022-09-23T02:10:27;14.25;;;14.25;;
36221;SDS011;22266;52.340;4.962;2022-09-23T02:13:01;13.50;;;12.50;;
36221;SDS011;22266;52.340;4.962;2022-09-23T02:15:42;13.25;;;12.25;;
36221;SDS011;22266;52.340;4.962;2022-09-23T02:18:15;11.50;;;11.50;;
36221;SDS011;22266;52.340;4.962;2022-09-23T02:20:46;16.25;;;16.25;;
36221;SDS011;22266;52.340;4.962;2022-09-23T02:23:22;15.25;;;14.25;;
36221;SDS011;22266;52.340;4.962;2022-09-23T02:28:49;14.75;;;13.25;;
36221;SDS011;22266;52.340;4.962;2022-09-23T02:31:42;11.25;;;11.25;;
36221;SDS011;22266;52.340;4.962;2022-09-23T02:39:57;11.00;;;10.50;;
36221;SDS011;22266;52.340;4.962;2022-09-23T02:42:38;12.50;;;10.75;;
36221;SDS011;22266;52.340;4.962;2022-09-23T02:45:13;14.00;;;13.50;;
36221;SDS011;22266;52.340;4.962;2022-09-23T02:47:40;16.75;;;16.75;;
36221;SDS011;22266;52.340;4.962;2022-09-23T02:50:12;15.00;;;10.50;;
36221;SDS011;22266;52.340;4.962;2022-09-23T02:52:38;14.00;;;14.00;;
36221;SDS011;22266;52.340;4.962;2022-09-23T02:55:05;15.25;;;13.75;;
36221;SDS011;22266;52.340;4.962;2022-09-23T02:57:36;16.50;;;16.00;;
36221;SDS011;22266;52.340;4.962;2022-09-23T03:00:03;14.50;;;12.50;;
36221;SDS011;22266;52.340;4.962;2022-09-23T03:02:41;19.00;;;19.00;;
36221;SDS011;22266;52.340;4.962;2022-09-23T03:05:18;13.25;;;12.50;;
36221;SDS011;22266;52.340;4.962;2022-09-23T03:07:55;16.75;;;14.00;;
36221;SDS011;22266;52.340;4.962;2022-09-23T03:18:30;17.25;;;17.25;;
36221;SDS011;22266;52.340;4.962;2022-09-23T03:21:04;16.50;;;14.75;;
36221;SDS011;22266;52.340;4.962;2022-09-23T03:23:35;21.75;;;20.75;;
36221;SDS011;22266;52.340;4.962;2022-09-23T03:26:13;11.00;;;11.00;;
36221;SDS011;22266;52.340;4.962;2022-09-23T03:28:44;17.00;;;15.25;;
36221;SDS011;22266;52.340;4.962;2022-09-23T03:31:12;19.25;;;16.50;;
36221;SDS011;22266;52.340;4.962;2022-09-23T03:33:41;18.00;;;15.75;;
36221;SDS011;22266;52.340;4.962;2022-09-23T03:36:12;16.00;;;15.00;;
36221;SDS011;22266;52.340;4.962;2022-09-23T03:39:01;18.75;;;18.25;;
36221;SDS011;22266;52.340;4.962;2022-09-23T03:41:38;19.00;;;18.25;;
36221;SDS011;22266;52.340;4.962;2022-09-23T03:44:10;17.75;;;16.75;;
36221;SDS011;22266;52.340;4.962;2022-09-23T03:46:37;20.25;;;16.50;;
36221;SDS011;22266;52.340;4.962;2022-09-23T03:49:13;18.75;;;14.25;;
36221;SDS011;22266;52.340;4.962;2022-09-23T03:51:42;17.00;;;14.75;;
36221;SDS011;22266;52.340;4.962;2022-09-23T03:54:10;21.25;;;19.50;;
36221;SDS011;22266;52.340;4.962;2022-09-23T03:56:36;18.50;;;15.75;;
36221;SDS011;22266;52.340;4.962;2022-09-23T03:59:03;16.00;;;14.25;;
36221;SDS011;22266;52.340;4.962;2022-09-23T04:01:29;12.50;;;12.50;;
36221;SDS011;22266;52.340;4.962;2022-09-23T04:03:56;14.25;;;13.25;;
36221;SDS011;22266;52.340;4.962;2022-09-23T04:06:22;12.50;;;12.50;;
36221;SDS011;22266;52.340;4.962;2022-09-23T04:08:48;16.50;;;16.25;;
36221;SDS011;22266;52.340;4.962;2022-09-23T04:11:15;13.00;;;13.00;;
36221;SDS011;22266;52.340;4.962;2022-09-23T04:13:42;15.50;;;14.00;;
36221;SDS011;22266;52.340;4.962;2022-09-23T04:16:08;14.25;;;13.25;;
36221;SDS011;22266;52.340;4.962;2022-09-23T04:18:34;11.50;;;11.50;;
36221;SDS011;22266;52.340;4.962;2022-09-23T04:21:01;12.50;;;12.25;;
36221;SDS011;22266;52.340;4.962;2022-09-23T04:23:27;16.50;;;15.75;;
36221;SDS011;22266;52.340;4.962;2022-09-23T04:25:54;13.00;;;10.00;;
36221;SDS011;22266;52.340;4.962;2022-09-23T04:28:20;12.50;;;11.00;;
36221;SDS011;22266;52.340;4.962;2022-09-23T04:30:47;11.75;;;11.75;;
36221;SDS011;22266;52.340;4.962;2022-09-23T04:33:14;12.00;;;12.00;;
36221;SDS011;22266;52.340;4.962;2022-09-23T04:35:41;16.50;;;15.50;;
36221;SDS011;22266;52.340;4.962;2022-09-23T04:38:09;13.00;;;13.00;;
36221;SDS011;22266;52.340;4.962;2022-09-23T04:40:37;16.50;;;13.50;;
36221;SDS011;22266;52.340;4.962;2022-09-23T04:43:04;16.75;;;15.00;;
36221;SDS011;22266;52.340;4.962;2022-09-23T04:45:31;15.50;;;13.50;;
36221;SDS011;22266;52.340;4.962;2022-09-23T04:47:57;13.75;;;13.75;;
36221;SDS011;22266;52.340;4.962;2022-09-23T04:50:24;10.25;;;10.25;;
36221;SDS011;22266;52.340;4.962;2022-09-23T04:52:52;12.50;;;12.50;;
36221;SDS011;22266;52.340;4.962;2022-09-23T04:55:19;14.50;;;10.75;;
36221;SDS011;22266;52.340;4.962;2022-09-23T04:57:46;14.00;;;14.00;;
36221;SDS011;22266;52.340;4.962;2022-09-23T05:00:13;12.50;;;11.25;;
36221;SDS011;22266;52.340;4.962;2022-09-23T05:02:47;14.25;;;12.50;;
36221;SDS011;22266;52.340;4.962;2022-09-23T05:05:15;14.00;;;14.00;;
36221;SDS011;22266;52.340;4.962;2022-09-23T05:07:46;16.00;;;12.00;;
36221;SDS011;22266;52.340;4.962;2022-09-23T05:10:13;13.00;;;13.00;;
36221;SDS011;22266;52.340;4.962;2022-09-23T05:12:40;13.25;;;12.00;;
36221;SDS011;22266;52.340;4.962;2022-09-23T05:15:07;14.25;;;11.50;;
36221;SDS011;22266;52.340;4.962;2022-09-23T05:17:33;12.00;;;11.75;;
36221;SDS011;22266;52.340;4.962;2022-09-23T05:20:02;13.50;;;12.25;;
36221;SDS011;22266;52.340;4.962;2022-09-23T05:22:29;10.50;;;10.25;;
36221;SDS011;22266;52.340;4.962;2022-09-23T05:24:56;14.25;;;13.25;;
36221;SDS011;22266;52.340;4.962;2022-09-23T05:27:24;10.75;;;10.25;;
36221;SDS011;22266;52.340;4.962;2022-09-23T05:29:51;11.50;;;9.25;;
36221;SDS011;22266;52.340;4.962;2022-09-23T05:32:18;9.25;;;9.25;;
36221;SDS011;22266;52.340;4.962;2022-09-23T05:34:45;11.50;;;11.50;;
36221;SDS011;22266;52.340;4.962;2022-09-23T05:37:11;15.50;;;13.75;;
36221;SDS011;22266;52.340;4.962;2022-09-23T05:39:38;13.00;;;13.00;;
36221;SDS011;22266;52.340;4.962;2022-09-23T05:42:04;8.25;;;8.25;;
36221;SDS011;22266;52.340;4.962;2022-09-23T05:44:31;9.25;;;9.25;;
36221;SDS011;22266;52.340;4.962;2022-09-23T05:46:57;11.00;;;11.00;;
36221;SDS011;22266;52.340;4.962;2022-09-23T05:49:24;12.75;;;12.75;;
36221;SDS011;22266;52.340;4.962;2022-09-23T05:52:10;11.50;;;11.50;;
36221;SDS011;22266;52.340;4.962;2022-09-23T05:54:37;16.00;;;14.50;;
36221;SDS011;22266;52.340;4.962;2022-09-23T05:57:03;16.50;;;10.00;;
36221;SDS011;22266;52.340;4.962;2022-09-23T05:59:31;12.00;;;10.50;;
36221;SDS011;22266;52.340;4.962;2022-09-23T06:01:57;14.25;;;10.25;;
36221;SDS011;22266;52.340;4.962;2022-09-23T06:04:25;10.25;;;8.75;;
36221;SDS011;22266;52.340;4.962;2022-09-23T06:06:51;12.50;;;12.00;;
36221;SDS011;22266;52.340;4.962;2022-09-23T06:09:18;12.75;;;11.25;;
36221;SDS011;22266;52.340;4.962;2022-09-23T06:11:44;11.00;;;11.00;;
36221;SDS011;22266;52.340;4.962;2022-09-23T06:14:12;12.75;;;12.00;;
36221;SDS011;22266;52.340;4.962;2022-09-23T06:16:39;10.75;;;10.75;;
36221;SDS011;22266;52.340;4.962;2022-09-23T06:19:06;12.00;;;11.75;;
36221;SDS011;22266;52.340;4.962;2022-09-23T06:21:33;10.25;;;10.00;;
36221;SDS011;22266;52.340;4.962;2022-09-23T06:24:01;13.00;;;11.50;;
36221;SDS011;22266;52.340;4.962;2022-09-23T06:26:28;17.00;;;13.50;;
36221;SDS011;22266;52.340;4.962;2022-09-23T06:28:58;12.00;;;11.25;;
36221;SDS011;22266;52.340;4.962;2022-09-23T06:31:27;11.50;;;11.00;;
36221;SDS011;22266;52.340;4.962;2022-09-23T06:33:54;14.00;;;11.00;;
36221;SDS011;22266;52.340;4.962;2022-09-23T06:36:34;18.25;;;17.25;;
36221;SDS011;22266;52.340;4.962;2022-09-23T06:39:10;15.00;;;13.50;;
36221;SDS011;22266;52.340;4.962;2022-09-23T06:41:36;18.00;;;15.50;;
36221;SDS011;22266;52.340;4.962;2022-09-23T06:44:08;12.75;;;11.00;;
36221;SDS011;22266;52.340;4.962;2022-09-23T06:46:34;11.75;;;10.50;;
36221;SDS011;22266;52.340;4.962;2022-09-23T06:49:02;9.75;;;9.75;;
36221;SDS011;22266;52.340;4.962;2022-09-23T06:51:28;8.00;;;8.00;;
36221;SDS011;22266;52.340;4.962;2022-09-23T06:53:55;7.25;;;7.00;;
36221;SDS011;22266;52.340;4.962;2022-09-23T06:56:21;10.00;;;10.00;;
36221;SDS011;22266;52.340;4.962;2022-09-23T06:58:50;8.00;;;8.00;;
36221;SDS011;22266;52.340;4.962;2022-09-23T07:01:17;10.00;;;10.00;;
36221;SDS011;22266;52.340;4.962;2022-09-23T07:03:45;12.00;;;12.00;;
36221;SDS011;22266;52.340;4.962;2022-09-23T07:06:13;17.25;;;12.50;;
36221;SDS011;22266;52.340;4.962;2022-09-23T07:08:41;10.50;;;10.50;;
36221;SDS011;22266;52.340;4.962;2022-09-23T07:11:09;10.75;;;10.75;;
36221;SDS011;22266;52.340;4.962;2022-09-23T07:13:38;7.00;;;7.00;;
36221;SDS011;22266;52.340;4.962;2022-09-23T07:16:06;15.25;;;14.25;;
36221;SDS011;22266;52.340;4.962;2022-09-23T07:18:34;12.50;;;11.25;;
36221;SDS011;22266;52.340;4.962;2022-09-23T07:21:09;16.00;;;12.75;;
36221;SDS011;22266;52.340;4.962;2022-09-23T07:23:41;13.75;;;13.75;;
36221;SDS011;22266;52.340;4.962;2022-09-23T07:26:09;15.00;;;13.00;;
36221;SDS011;22266;52.340;4.962;2022-09-23T07:28:35;13.00;;;9.50;;
36221;SDS011;22266;52.340;4.962;2022-09-23T07:31:03;14.75;;;11.50;;
36221;SDS011;22266;52.340;4.962;2022-09-23T07:33:42;11.00;;;9.25;;
36221;SDS011;22266;52.340;4.962;2022-09-23T07:36:16;13.25;;;10.00;;
36221;SDS011;22266;52.340;4.962;2022-09-23T07:38:44;8.75;;;8.25;;
36221;SDS011;22266;52.340;4.962;2022-09-23T07:41:13;4.25;;;2.00;;
36221;SDS011;22266;52.340;4.962;2022-09-23T07:43:42;19.00;;;16.00;;
36221;SDS011;22266;52.340;4.962;2022-09-23T07:46:10;13.25;;;12.00;;
36221;SDS011;22266;52.340;4.962;2022-09-23T07:48:40;10.25;;;9.00;;
36221;SDS011;22266;52.340;4.962;2022-09-23T07:51:11;16.00;;;11.50;;
36221;SDS011;22266;52.340;4.962;2022-09-23T07:53:44;13.25;;;9.75;;
36221;SDS011;22266;52.340;4.962;2022-09-23T07:56:15;18.00;;;16.50;;
36221;SDS011;22266;52.340;4.962;2022-09-23T07:58:44;14.75;;;10.50;;
36221;SDS011;22266;52.340;4.962;2022-09-23T08:01:11;16.00;;;12.00;;
36221;SDS011;22266;52.340;4.962;2022-09-23T08:03:38;14.25;;;13.75;;
36221;SDS011;22266;52.340;4.962;2022-09-23T08:06:09;10.25;;;10.25;;
36221;SDS011;22266;52.340;4.962;2022-09-23T08:08:38;11.75;;;10.50;;
36221;SDS011;22266;52.340;4.962;2022-09-23T08:11:09;13.00;;;12.00;;
36221;SDS011;22266;52.340;4.962;2022-09-23T08:13:38;10.50;;;10.50;;
36221;SDS011;22266;52.340;4.962;2022-09-23T08:16:05;15.25;;;13.00;;
36221;SDS011;22266;52.340;4.962;2022-09-23T08:18:32;10.75;;;10.00;;
36221;SDS011;22266;52.340;4.962;2022-09-23T08:20:58;12.25;;;12.25;;
36221;SDS011;22266;52.340;4.962;2022-09-23T08:23:25;11.75;;;11.75;;
36221;SDS011;22266;52.340;4.962;2022-09-23T08:25:58;9.75;;;8.00;;
36221;SDS011;22266;52.340;4.962;2022-09-23T08:28:26;11.00;;;11.00;;
36221;SDS011;22266;52.340;4.962;2022-09-23T08:30:53;11.50;;;9.25;;
36221;SDS011;22266;52.340;4.962;2022-09-23T08:33:20;12.25;;;11.50;;
36221;SDS011;22266;52.340;4.962;2022-09-23T08:35:49;10.00;;;9.00;;
36221;SDS011;22266;52.340;4.962;2022-09-23T08:38:16;13.25;;;13.25;;
36221;SDS011;22266;52.340;4.962;2022-09-23T08:40:45;13.75;;;10.00;;
36221;SDS011;22266;52.340;4.962;2022-09-23T08:43:27;18.00;;;14.25;;
36221;SDS011;22266;52.340;4.962;2022-09-23T08:45:56;14.75;;;14.75;;
36221;SDS011;22266;52.340;4.962;2022-09-23T08:48:28;11.75;;;11.50;;
36221;SDS011;22266;52.340;4.962;2022-09-23T08:51:00;15.00;;;11.00;;
36221;SDS011;22266;52.340;4.962;2022-09-23T08:53:33;16.00;;;14.00;;
36221;SDS011;22266;52.340;4.962;2022-09-23T08:56:10;13.00;;;13.00;;
36221;SDS011;22266;52.340;4.962;2022-09-23T08:58:58;10.50;;;10.00;;
36221;SDS011;22266;52.340;4.962;2022-09-23T09:12:46;13.00;;;13.00;;
36221;SDS011;22266;52.340;4.962;2022-09-23T09:15:34;9.25;;;9.25;;
36221;SDS011;22266;52.340;4.962;2022-09-23T09:18:27;16.25;;;13.50;;
36221;SDS011;22266;52.340;4.962;2022-09-23T09:21:06;12.00;;;12.00;;
36221;SDS011;22266;52.340;4.962;2022-09-23T09:23:56;12.00;;;9.67;;
36221;SDS011;22266;52.340;4.962;2022-09-23T09:26:28;12.00;;;12.00;;
36221;SDS011;22266;52.340;4.962;2022-09-23T09:31:54;14.25;;;14.25;;
36221;SDS011;22266;52.340;4.962;2022-09-23T09:39:32;14.33;;;11.00;;
36221;SDS011;22266;52.340;4.962;2022-09-23T09:42:00;12.00;;;11.00;;
36221;SDS011;22266;52.340;4.962;2022-09-23T09:47:50;12.33;;;11.00;;
36221;SDS011;22266;52.340;4.962;2022-09-23T09:56:08;13.00;;;13.00;;
36221;SDS011;22266;52.340;4.962;2022-09-23T09:58:47;12.00;;;11.00;;
36221;SDS011;22266;52.340;4.962;2022-09-23T10:03:54;14.75;;;14.50;;
36221;SDS011;22266;52.340;4.962;2022-09-23T10:06:25;21.50;;;16.25;;
36221;SDS011;22266;52.340;4.962;2022-09-23T10:11:30;10.67;;;10.00;;
36221;SDS011;22266;52.340;4.962;2022-09-23T10:14:14;14.67;;;14.67;;
36221;SDS011;22266;52.340;4.962;2022-09-23T10:16:45;13.50;;;12.25;;
36221;SDS011;22266;52.340;4.962;2022-09-23T10:19:26;14.33;;;13.33;;
36221;SDS011;22266;52.340;4.962;2022-09-23T10:21:55;23.00;;;19.00;;
36221;SDS011;22266;52.340;4.962;2022-09-23T10:24:26;14.25;;;13.50;;
36221;SDS011;22266;52.340;4.962;2022-09-23T10:26:57;16.75;;;13.25;;
36221;SDS011;22266;52.340;4.962;2022-09-23T10:30:29;14.00;;;13.00;;
36221;SDS011;22266;52.340;4.962;2022-09-23T10:37:37;17.33;;;16.33;;
36221;SDS011;22266;52.340;4.962;2022-09-23T10:40:11;15.75;;;14.50;;
36221;SDS011;22266;52.340;4.962;2022-09-23T10:43:20;14.25;;;10.25;;
36221;SDS011;22266;52.340;4.962;2022-09-23T10:46:18;11.00;;;10.00;;
36221;SDS011;22266;52.340;4.962;2022-09-23T10:58:08;15.50;;;14.00;;
36221;SDS011;22266;52.340;4.962;2022-09-23T11:03:27;15.00;;;13.67;;
36221;SDS011;22266;52.340;4.962;2022-09-23T11:09:17;11.33;;;11.00;;
36221;SDS011;22266;52.340;4.962;2022-09-23T11:14:47;9.67;;;9.67;;
36221;SDS011;22266;52.340;4.962;2022-09-23T11:23:12;13.67;;;13.00;;
36221;SDS011;22266;52.340;4.962;2022-09-23T11:34:37;13.00;;;10.33;;
36221;SDS011;22266;52.340;4.962;2022-09-23T11:37:21;11.00;;;10.00;;
36221;SDS011;22266;52.340;4.962;2022-09-23T11:40:03;12.00;;;10.00;;
36221;SDS011;22266;52.340;4.962;2022-09-23T11:42:46;11.33;;;9.67;;
36221;SDS011;22266;52.340;4.962;2022-09-23T11:45:21;12.67;;;10.00;;
36221;SDS011;22266;52.340;4.962;2022-09-23T11:47:56;18.67;;;14.67;;
36221;SDS011;22266;52.340;4.962;2022-09-23T11:53:19;11.33;;;9.33;;
36221;SDS011;22266;52.340;4.962;2022-09-23T11:55:52;9.00;;;9.00;;
36221;SDS011;22266;52.340;4.962;2022-09-23T11:58:27;13.00;;;11.00;;
36221;SDS011;22266;52.340;4.962;2022-09-23T12:01:02;10.67;;;10.33;;
36221;SDS011;22266;52.340;4.962;2022-09-23T12:06:20;13.67;;;13.00;;
36221;SDS011;22266;52.340;4.962;2022-09-23T12:08:53;17.00;;;11.33;;
36221;SDS011;22266;52.340;4.962;2022-09-23T12:11:40;11.33;;;11.33;;
36221;SDS011;22266;52.340;4.962;2022-09-23T12:19:54;7.00;;;7.00;;
36221;SDS011;22266;52.340;4.962;2022-09-23T12:22:34;13.33;;;13.33;;
36221;SDS011;22266;52.340;4.962;2022-09-23T12:31:03;13.67;;;13.00;;
36221;SDS011;22266;52.340;4.962;2022-09-23T12:33:36;15.33;;;13.67;;
36221;SDS011;22266;52.340;4.962;2022-09-23T12:38:38;16.00;;;15.00;;
36221;SDS011;22266;52.340;4.962;2022-09-23T12:46:49;22.50;;;20.25;;
36221;SDS011;22266;52.340;4.962;2022-09-23T12:49:50;19.33;;;17.00;;
36221;SDS011;22266;52.340;4.962;2022-09-23T12:54:46;18.00;;;15.33;;
36221;SDS011;22266;52.340;4.962;2022-09-23T13:05:00;15.33;;;15.00;;
36221;SDS011;22266;52.340;4.962;2022-09-23T13:07:59;10.00;;;8.00;;
36221;SDS011;22266;52.340;4.962;2022-09-23T13:10:36;17.33;;;17.00;;
36221;SDS011;22266;52.340;4.962;2022-09-23T13:13:13;12.67;;;12.67;;
36221;SDS011;22266;52.340;4.962;2022-09-23T13:15:48;17.00;;;15.67;;
36221;SDS011;22266;52.340;4.962;2022-09-23T13:20:51;14.67;;;12.33;;
36221;SDS011;22266;52.340;4.962;2022-09-23T13:23:25;9.67;;;8.67;;
36221;SDS011;22266;52.340;4.962;2022-09-23T13:25:57;11.33;;;10.67;;
36221;SDS011;22266;52.340;4.962;2022-09-23T13:28:30;9.00;;;9.00;;
36221;SDS011;22266;52.340;4.962;2022-09-23T13:31:18;10.33;;;10.33;;
36221;SDS011;22266;52.340;4.962;2022-09-23T13:33:48;12.33;;;12.33;;
36221;SDS011;22266;52.340;4.962;2022-09-23T13:36:18;16.33;;;15.33;;
36221;SDS011;22266;52.340;4.962;2022-09-23T13:38:45;15.33;;;15.00;;
36221;SDS011;22266;52.340;4.962;2022-09-23T13:41:13;14.25;;;13.50;;
36221;SDS011;22266;52.340;4.962;2022-09-23T13:43:44;13.00;;;13.00;;
36221;SDS011;22266;52.340;4.962;2022-09-23T13:46:17;12.25;;;12.25;;
36221;SDS011;22266;52.340;4.962;2022-09-23T13:48:47;14.67;;;14.67;;
36221;SDS011;22266;52.340;4.962;2022-09-23T13:51:27;13.00;;;11.75;;
36221;SDS011;22266;52.340;4.962;2022-09-23T13:53:59;10.75;;;9.25;;
36221;SDS011;22266;52.340;4.962;2022-09-23T13:56:28;8.00;;;8.00;;
36221;SDS011;22266;52.340;4.962;2022-09-23T14:02:04;10.67;;;10.67;;
36221;SDS011;22266;52.340;4.962;2022-09-23T14:04:35;13.67;;;10.67;;
36221;SDS011;22266;52.340;4.962;2022-09-23T14:07:02;7.67;;;7.67;;
36221;SDS011;22266;52.340;4.962;2022-09-23T14:09:29;9.75;;;6.25;;
36221;SDS011;22266;52.340;4.962;2022-09-23T14:11:57;9.67;;;9.67;;
36221;SDS011;22266;52.340;4.962;2022-09-23T14:14:25;17.00;;;15.33;;
36221;SDS011;22266;52.340;4.962;2022-09-23T14:16:55;12.00;;;12.00;;
36221;SDS011;22266;52.340;4.962;2022-09-23T14:19:23;12.33;;;11.00;;
36221;SDS011;22266;52.340;4.962;2022-09-23T14:21:54;11.33;;;10.00;;
36221;SDS011;22266;52.340;4.962;2022-09-23T14:24:22;10.33;;;10.33;;
36221;SDS011;22266;52.340;4.962;2022-09-23T14:26:55;12.00;;;12.00;;
36221;SDS011;22266;52.340;4.962;2022-09-23T14:29:36;10.25;;;9.00;;
36221;SDS011;22266;52.340;4.962;2022-09-23T14:32:14;8.33;;;8.33;;
36221;SDS011;22266;52.340;4.962;2022-09-23T14:34:48;9.00;;;7.00;;
36221;SDS011;22266;52.340;4.962;2022-09-23T14:40:18;7.25;;;7.25;;
36221;SDS011;22266;52.340;4.962;2022-09-23T14:45:21;15.00;;;15.00;;
36221;SDS011;22266;52.340;4.962;2022-09-23T14:47:51;12.00;;;12.00;;
36221;SDS011;22266;52.340;4.962;2022-09-23T14:50:24;10.75;;;9.00;;
36221;SDS011;22266;52.340;4.962;2022-09-23T14:53:22;11.25;;;7.50;;
36221;SDS011;22266;52.340;4.962;2022-09-23T15:01:35;11.00;;;10.00;;
36221;SDS011;22266;52.340;4.962;2022-09-23T15:06:50;10.67;;;10.67;;
36221;SDS011;22266;52.340;4.962;2022-09-23T15:09:21;9.67;;;9.67;;
36221;SDS011;22266;52.340;4.962;2022-09-23T15:12:01;10.33;;;10.33;;
36221;SDS011;22266;52.340;4.962;2022-09-23T15:14:36;8.33;;;7.33;;
36221;SDS011;22266;52.340;4.962;2022-09-23T15:17:14;9.75;;;9.75;;
36221;SDS011;22266;52.340;4.962;2022-09-23T15:20:04;11.33;;;11.33;;
36221;SDS011;22266;52.340;4.962;2022-09-23T15:22:43;10.00;;;10.00;;
36221;SDS011;22266;52.340;4.962;2022-09-23T15:27:53;10.33;;;9.00;;
36221;SDS011;22266;52.340;4.962;2022-09-23T15:30:23;12.67;;;11.67;;
36221;SDS011;22266;52.340;4.962;2022-09-23T15:32:50;12.25;;;11.00;;
36221;SDS011;22266;52.340;4.962;2022-09-23T15:35:17;9.00;;;9.00;;
36221;SDS011;22266;52.340;4.962;2022-09-23T15:37:46;6.00;;;6.00;;
36221;SDS011;22266;52.340;4.962;2022-09-23T15:40:22;8.00;;;7.33;;
36221;SDS011;22266;52.340;4.962;2022-09-23T15:42:55;9.50;;;7.25;;
36221;SDS011;22266;52.340;4.962;2022-09-23T15:45:36;9.25;;;8.75;;
36221;SDS011;22266;52.340;4.962;2022-09-23T15:48:11;15.67;;;14.33;;
36221;SDS011;22266;52.340;4.962;2022-09-23T15:50:39;17.33;;;16.00;;
36221;SDS011;22266;52.340;4.962;2022-09-23T15:53:09;10.00;;;10.00;;
36221;SDS011;22266;52.340;4.962;2022-09-23T15:55:40;11.00;;;9.00;;
36221;SDS011;22266;52.340;4.962;2022-09-23T15:58:06;8.00;;;8.00;;
36221;SDS011;22266;52.340;4.962;2022-09-23T16:00:33;12.00;;;11.67;;
36221;SDS011;22266;52.340;4.962;2022-09-23T16:03:02;10.67;;;8.00;;
36221;SDS011;22266;52.340;4.962;2022-09-23T16:05:33;15.67;;;13.33;;
36221;SDS011;22266;52.340;4.962;2022-09-23T16:08:03;11.00;;;11.00;;
36221;SDS011;22266;52.340;4.962;2022-09-23T16:10:34;10.33;;;10.33;;
36221;SDS011;22266;52.340;4.962;2022-09-23T16:13:02;14.33;;;11.67;;
36221;SDS011;22266;52.340;4.962;2022-09-23T16:15:31;17.00;;;14.00;;
36221;SDS011;22266;52.340;4.962;2022-09-23T16:17:58;13.33;;;11.00;;
36221;SDS011;22266;52.340;4.962;2022-09-23T16:20:26;13.67;;;13.33;;
36221;SDS011;22266;52.340;4.962;2022-09-23T16:22:58;22.33;;;19.33;;
36221;SDS011;22266;52.340;4.962;2022-09-23T16:25:26;11.00;;;10.33;;
36221;SDS011;22266;52.340;4.962;2022-09-23T16:27:56;11.67;;;11.67;;
36221;SDS011;22266;52.340;4.962;2022-09-23T16:30:27;9.00;;;8.00;;
36221;SDS011;22266;52.340;4.962;2022-09-23T16:32:54;8.67;;;8.67;;
36221;SDS011;22266;52.340;4.962;2022-09-23T16:35:22;10.00;;;9.67;;
36221;SDS011;22266;52.340;4.962;2022-09-23T16:37:50;11.33;;;11.33;;
36221;SDS011;22266;52.340;4.962;2022-09-23T16:40:18;11.00;;;10.00;;
36221;SDS011;22266;52.340;4.962;2022-09-23T16:42:47;15.00;;;15.00;;
36221;SDS011;22266;52.340;4.962;2022-09-23T16:45:15;17.00;;;15.33;;
36221;SDS011;22266;52.340;4.962;2022-09-23T16:47:43;15.00;;;15.00;;
36221;SDS011;22266;52.340;4.962;2022-09-23T16:50:12;20.33;;;18.67;;
36221;SDS011;22266;52.340;4.962;2022-09-23T16:52:40;15.00;;;14.67;;
36221;SDS011;22266;52.340;4.962;2022-09-23T16:55:08;24.75;;;24.00;;
36221;SDS011;22266;52.340;4.962;2022-09-23T16:57:36;39.00;;;34.75;;
36221;SDS011;22266;52.340;4.962;2022-09-23T17:00:05;25.75;;;25.25;;
36221;SDS011;22266;52.340;4.962;2022-09-23T17:02:52;29.25;;;28.00;;
36221;SDS011;22266;52.340;4.962;2022-09-23T17:05:37;30.25;;;29.00;;
36221;SDS011;22266;52.340;4.962;2022-09-23T17:08:03;20.67;;;19.00;;
36221;SDS011;22266;52.340;4.962;2022-09-23T17:10:30;33.50;;;33.25;;
36221;SDS011;22266;52.340;4.962;2022-09-23T17:12:58;25.00;;;22.00;;
36221;SDS011;22266;52.340;4.962;2022-09-23T17:15:25;25.33;;;23.33;;
36221;SDS011;22266;52.340;4.962;2022-09-23T17:17:52;21.25;;;19.50;;
36221;SDS011;22266;52.340;4.962;2022-09-23T17:20:18;29.25;;;26.75;;
36221;SDS011;22266;52.340;4.962;2022-09-23T17:22:45;23.00;;;22.00;;
36221;SDS011;22266;52.340;4.962;2022-09-23T17:25:11;21.67;;;20.33;;
36221;SDS011;22266;52.340;4.962;2022-09-23T17:27:37;15.00;;;15.00;;
36221;SDS011;22266;52.340;4.962;2022-09-23T17:30:04;25.75;;;20.75;;
36221;SDS011;22266;52.340;4.962;2022-09-23T17:32:31;18.00;;;14.33;;
36221;SDS011;22266;52.340;4.962;2022-09-23T17:34:57;14.33;;;12.33;;
36221;SDS011;22266;52.340;4.962;2022-09-23T17:37:29;10.67;;;10.67;;
36221;SDS011;22266;52.340;4.962;2022-09-23T17:39:57;10.33;;;9.00;;